sensor_id;sensor_type;location;lat;lon;timestamp;P1;durP1;ratioP1;P2;durP2;ratioP2
39094;SDS011;24840;47.508;19.376;2023-06-14T00:00:20;5.70;;;3.90;;
39094;SDS011;24840;47.508;19.376;2023-06-14T00:02:47;4.88;;;3.67;;
39094;SDS011;24840;47.508;19.376;2023-06-14T00:05:13;7.20;;;4.35;;
39094;SDS011;24840;47.508;19.376;2023-06-14T00:07:39;5.57;;;3.88;;
39094;SDS011;24840;47.508;19.376;2023-06-14T00:10:10;7.70;;;3.85;;
39094;SDS011;24840;47.508;19.376;2023-06-14T00:12:36;4.55;;;4.07;;
39094;SDS011;24840;47.508;19.376;2023-06-14T00:15:03;5.35;;;3.90;;
39094;SDS011;24840;47.508;19.376;2023-06-14T00:17:29;6.47;;;3.97;;
39094;SDS011;24840;47.508;19.376;2023-06-14T00:19:58;5.82;;;4.20;;
39094;SDS011;24840;47.508;19.376;2023-06-14T00:22:24;4.53;;;3.88;;
39094;SDS011;24840;47.508;19.376;2023-06-14T00:24:53;5.38;;;3.78;;
39094;SDS011;24840;47.508;19.376;2023-06-14T00:27:19;5.32;;;4.30;;
39094;SDS011;24840;47.508;19.376;2023-06-14T00:29:45;4.53;;;3.80;;
39094;SDS011;24840;47.508;19.376;2023-06-14T00:32:10;4.63;;;3.88;;
39094;SDS011;24840;47.508;19.376;2023-06-14T00:34:36;5.05;;;4.25;;
39094;SDS011;24840;47.508;19.376;2023-06-14T00:37:02;7.93;;;5.22;;
39094;SDS011;24840;47.508;19.376;2023-06-14T00:39:28;5.43;;;3.97;;
39094;SDS011;24840;47.508;19.376;2023-06-14T00:41:54;5.35;;;4.38;;
39094;SDS011;24840;47.508;19.376;2023-06-14T00:44:19;6.63;;;5.03;;
39094;SDS011;24840;47.508;19.376;2023-06-14T00:46:46;5.22;;;4.50;;
39094;SDS011;24840;47.508;19.376;2023-06-14T00:49:14;5.30;;;4.40;;
39094;SDS011;24840;47.508;19.376;2023-06-14T00:51:41;5.30;;;4.47;;
39094;SDS011;24840;47.508;19.376;2023-06-14T00:54:07;6.57;;;4.22;;
39094;SDS011;24840;47.508;19.376;2023-06-14T00:56:35;6.05;;;4.43;;
39094;SDS011;24840;47.508;19.376;2023-06-14T00:59:01;7.10;;;5.15;;
39094;SDS011;24840;47.508;19.376;2023-06-14T01:01:28;8.10;;;4.80;;
39094;SDS011;24840;47.508;19.376;2023-06-14T01:03:58;8.95;;;4.75;;
39094;SDS011;24840;47.508;19.376;2023-06-14T01:09:11;5.20;;;4.32;;
39094;SDS011;24840;47.508;19.376;2023-06-14T01:12:00;5.15;;;4.20;;
39094;SDS011;24840;47.508;19.376;2023-06-14T01:14:36;5.97;;;4.55;;
39094;SDS011;24840;47.508;19.376;2023-06-14T01:17:04;6.40;;;4.63;;
39094;SDS011;24840;47.508;19.376;2023-06-14T01:19:30;5.70;;;4.30;;
39094;SDS011;24840;47.508;19.376;2023-06-14T01:21:59;6.40;;;5.07;;
39094;SDS011;24840;47.508;19.376;2023-06-14T01:24:26;7.05;;;5.55;;
39094;SDS011;24840;47.508;19.376;2023-06-14T01:26:54;8.48;;;5.40;;
39094;SDS011;24840;47.508;19.376;2023-06-14T01:29:22;8.85;;;4.75;;
39094;SDS011;24840;47.508;19.376;2023-06-14T01:31:50;6.50;;;5.00;;
39094;SDS011;24840;47.508;19.376;2023-06-14T01:34:16;8.18;;;4.47;;
39094;SDS011;24840;47.508;19.376;2023-06-14T01:36:43;15.65;;;5.22;;
39094;SDS011;24840;47.508;19.376;2023-06-14T01:39:11;5.97;;;5.28;;
39094;SDS011;24840;47.508;19.376;2023-06-14T01:41:40;7.60;;;5.60;;
39094;SDS011;24840;47.508;19.376;2023-06-14T01:44:07;7.22;;;5.47;;
39094;SDS011;24840;47.508;19.376;2023-06-14T01:46:34;7.25;;;5.30;;
39094;SDS011;24840;47.508;19.376;2023-06-14T01:49:01;6.25;;;5.40;;
39094;SDS011;24840;47.508;19.376;2023-06-14T01:51:27;8.63;;;5.72;;
39094;SDS011;24840;47.508;19.376;2023-06-14T01:53:53;9.43;;;5.90;;
39094;SDS011;24840;47.508;19.376;2023-06-14T01:56:18;6.05;;;5.13;;
39094;SDS011;24840;47.508;19.376;2023-06-14T01:58:45;10.75;;;5.90;;
39094;SDS011;24840;47.508;19.376;2023-06-14T02:01:10;6.90;;;6.18;;
39094;SDS011;24840;47.508;19.376;2023-06-14T02:03:37;6.50;;;5.65;;
39094;SDS011;24840;47.508;19.376;2023-06-14T02:06:03;7.95;;;5.60;;
39094;SDS011;24840;47.508;19.376;2023-06-14T02:08:29;7.70;;;5.38;;
39094;SDS011;24840;47.508;19.376;2023-06-14T02:10:55;7.43;;;5.82;;
39094;SDS011;24840;47.508;19.376;2023-06-14T02:13:21;6.68;;;5.72;;
39094;SDS011;24840;47.508;19.376;2023-06-14T02:15:47;9.32;;;7.15;;
39094;SDS011;24840;47.508;19.376;2023-06-14T02:18:16;11.75;;;7.13;;
39094;SDS011;24840;47.508;19.376;2023-06-14T02:20:42;10.77;;;6.30;;
39094;SDS011;24840;47.508;19.376;2023-06-14T02:23:07;12.10;;;6.57;;
39094;SDS011;24840;47.508;19.376;2023-06-14T02:25:33;7.85;;;6.38;;
39094;SDS011;24840;47.508;19.376;2023-06-14T02:27:59;8.32;;;6.05;;
39094;SDS011;24840;47.508;19.376;2023-06-14T02:30:25;7.40;;;5.90;;
39094;SDS011;24840;47.508;19.376;2023-06-14T02:32:51;9.07;;;6.43;;
39094;SDS011;24840;47.508;19.376;2023-06-14T02:35:18;10.45;;;6.43;;
39094;SDS011;24840;47.508;19.376;2023-06-14T02:37:45;9.18;;;5.95;;
39094;SDS011;24840;47.508;19.376;2023-06-14T02:40:11;6.07;;;5.10;;
39094;SDS011;24840;47.508;19.376;2023-06-14T02:42:37;7.00;;;6.30;;
39094;SDS011;24840;47.508;19.376;2023-06-14T02:45:03;11.23;;;7.13;;
39094;SDS011;24840;47.508;19.376;2023-06-14T02:47:29;8.40;;;6.30;;
39094;SDS011;24840;47.508;19.376;2023-06-14T02:49:55;7.18;;;6.07;;
39094;SDS011;24840;47.508;19.376;2023-06-14T02:52:20;8.05;;;6.10;;
39094;SDS011;24840;47.508;19.376;2023-06-14T02:54:46;9.95;;;7.13;;
39094;SDS011;24840;47.508;19.376;2023-06-14T02:57:12;7.57;;;5.93;;
39094;SDS011;24840;47.508;19.376;2023-06-14T02:59:38;12.88;;;7.80;;
39094;SDS011;24840;47.508;19.376;2023-06-14T03:02:04;9.55;;;6.88;;
39094;SDS011;24840;47.508;19.376;2023-06-14T03:04:30;7.93;;;6.28;;
39094;SDS011;24840;47.508;19.376;2023-06-14T03:07:02;10.00;;;6.90;;
39094;SDS011;24840;47.508;19.376;2023-06-14T03:09:37;8.05;;;6.72;;
39094;SDS011;24840;47.508;19.376;2023-06-14T03:12:03;15.45;;;6.70;;
39094;SDS011;24840;47.508;19.376;2023-06-14T03:14:32;12.63;;;6.10;;
39094;SDS011;24840;47.508;19.376;2023-06-14T03:16:58;8.52;;;6.68;;
39094;SDS011;24840;47.508;19.376;2023-06-14T03:19:24;8.07;;;7.03;;
39094;SDS011;24840;47.508;19.376;2023-06-14T03:21:51;7.97;;;6.13;;
39094;SDS011;24840;47.508;19.376;2023-06-14T03:24:17;9.65;;;6.18;;
39094;SDS011;24840;47.508;19.376;2023-06-14T03:26:43;7.57;;;6.25;;
39094;SDS011;24840;47.508;19.376;2023-06-14T03:29:08;10.50;;;7.07;;
39094;SDS011;24840;47.508;19.376;2023-06-14T03:31:34;12.02;;;7.05;;
39094;SDS011;24840;47.508;19.376;2023-06-14T03:34:01;8.45;;;6.93;;
39094;SDS011;24840;47.508;19.376;2023-06-14T03:36:27;9.02;;;7.35;;
39094;SDS011;24840;47.508;19.376;2023-06-14T03:38:53;9.05;;;7.40;;
39094;SDS011;24840;47.508;19.376;2023-06-14T03:41:22;10.40;;;6.88;;
39094;SDS011;24840;47.508;19.376;2023-06-14T03:43:48;8.98;;;7.40;;
39094;SDS011;24840;47.508;19.376;2023-06-14T03:46:14;10.02;;;6.90;;
39094;SDS011;24840;47.508;19.376;2023-06-14T03:48:40;8.35;;;6.55;;
39094;SDS011;24840;47.508;19.376;2023-06-14T03:51:06;10.60;;;7.30;;
39094;SDS011;24840;47.508;19.376;2023-06-14T03:53:32;10.52;;;6.32;;
39094;SDS011;24840;47.508;19.376;2023-06-14T03:56:00;11.02;;;7.47;;
39094;SDS011;24840;47.508;19.376;2023-06-14T03:58:26;11.73;;;8.10;;
39094;SDS011;24840;47.508;19.376;2023-06-14T04:00:51;12.93;;;8.75;;
39094;SDS011;24840;47.508;19.376;2023-06-14T04:03:17;10.00;;;8.68;;
39094;SDS011;24840;47.508;19.376;2023-06-14T04:05:44;13.32;;;8.77;;
39094;SDS011;24840;47.508;19.376;2023-06-14T04:08:14;12.13;;;8.93;;
39094;SDS011;24840;47.508;19.376;2023-06-14T04:10:41;8.77;;;6.82;;
39094;SDS011;24840;47.508;19.376;2023-06-14T04:13:06;13.70;;;9.30;;
39094;SDS011;24840;47.508;19.376;2023-06-14T04:15:32;13.30;;;8.80;;
39094;SDS011;24840;47.508;19.376;2023-06-14T04:17:58;11.00;;;8.73;;
39094;SDS011;24840;47.508;19.376;2023-06-14T04:20:25;11.10;;;8.27;;
39094;SDS011;24840;47.508;19.376;2023-06-14T04:22:51;11.35;;;8.63;;
39094;SDS011;24840;47.508;19.376;2023-06-14T04:25:22;13.85;;;9.63;;
39094;SDS011;24840;47.508;19.376;2023-06-14T04:27:50;11.57;;;8.18;;
39094;SDS011;24840;47.508;19.376;2023-06-14T04:30:17;11.43;;;8.82;;
39094;SDS011;24840;47.508;19.376;2023-06-14T04:32:42;11.90;;;8.70;;
39094;SDS011;24840;47.508;19.376;2023-06-14T04:35:09;14.75;;;9.88;;
39094;SDS011;24840;47.508;19.376;2023-06-14T04:37:35;12.25;;;9.27;;
39094;SDS011;24840;47.508;19.376;2023-06-14T04:40:05;13.02;;;9.93;;
39094;SDS011;24840;47.508;19.376;2023-06-14T04:42:31;13.40;;;10.32;;
39094;SDS011;24840;47.508;19.376;2023-06-14T04:44:57;11.05;;;9.23;;
39094;SDS011;24840;47.508;19.376;2023-06-14T04:47:23;10.32;;;8.23;;
39094;SDS011;24840;47.508;19.376;2023-06-14T04:49:54;12.57;;;9.60;;
39094;SDS011;24840;47.508;19.376;2023-06-14T04:52:22;11.55;;;8.52;;
39094;SDS011;24840;47.508;19.376;2023-06-14T04:54:48;14.13;;;10.75;;
39094;SDS011;24840;47.508;19.376;2023-06-14T04:57:13;14.23;;;9.73;;
39094;SDS011;24840;47.508;19.376;2023-06-14T04:59:42;14.20;;;9.70;;
39094;SDS011;24840;47.508;19.376;2023-06-14T05:02:09;12.68;;;8.82;;
39094;SDS011;24840;47.508;19.376;2023-06-14T05:04:38;16.42;;;9.13;;
39094;SDS011;24840;47.508;19.376;2023-06-14T05:07:08;14.23;;;10.65;;
39094;SDS011;24840;47.508;19.376;2023-06-14T05:09:37;10.82;;;8.48;;
39094;SDS011;24840;47.508;19.376;2023-06-14T05:12:03;10.98;;;8.55;;
39094;SDS011;24840;47.508;19.376;2023-06-14T05:14:29;12.23;;;8.57;;
39094;SDS011;24840;47.508;19.376;2023-06-14T05:16:55;10.48;;;7.57;;
39094;SDS011;24840;47.508;19.376;2023-06-14T05:19:20;13.30;;;8.80;;
39094;SDS011;24840;47.508;19.376;2023-06-14T05:21:47;12.05;;;8.95;;
39094;SDS011;24840;47.508;19.376;2023-06-14T05:24:13;10.00;;;8.15;;
39094;SDS011;24840;47.508;19.376;2023-06-14T05:26:39;9.55;;;7.88;;
39094;SDS011;24840;47.508;19.376;2023-06-14T05:29:05;27.05;;;9.90;;
39094;SDS011;24840;47.508;19.376;2023-06-14T05:31:31;8.65;;;6.57;;
39094;SDS011;24840;47.508;19.376;2023-06-14T05:33:57;8.18;;;7.18;;
39094;SDS011;24840;47.508;19.376;2023-06-14T05:36:24;10.63;;;7.03;;
39094;SDS011;24840;47.508;19.376;2023-06-14T05:38:50;10.70;;;7.28;;
39094;SDS011;24840;47.508;19.376;2023-06-14T05:41:16;11.63;;;7.60;;
39094;SDS011;24840;47.508;19.376;2023-06-14T05:43:42;9.55;;;6.85;;
39094;SDS011;24840;47.508;19.376;2023-06-14T05:46:07;9.18;;;7.38;;
39094;SDS011;24840;47.508;19.376;2023-06-14T05:48:33;7.13;;;6.13;;
39094;SDS011;24840;47.508;19.376;2023-06-14T05:50:59;12.90;;;7.60;;
39094;SDS011;24840;47.508;19.376;2023-06-14T05:53:25;9.82;;;7.43;;
39094;SDS011;24840;47.508;19.376;2023-06-14T05:55:53;9.20;;;6.97;;
39094;SDS011;24840;47.508;19.376;2023-06-14T05:58:20;9.63;;;6.60;;
39094;SDS011;24840;47.508;19.376;2023-06-14T06:00:46;9.82;;;7.28;;
39094;SDS011;24840;47.508;19.376;2023-06-14T06:03:12;8.48;;;6.88;;
39094;SDS011;24840;47.508;19.376;2023-06-14T06:05:38;10.07;;;7.40;;
39094;SDS011;24840;47.508;19.376;2023-06-14T06:08:04;9.60;;;7.13;;
39094;SDS011;24840;47.508;19.376;2023-06-14T06:10:30;9.50;;;6.43;;
39094;SDS011;24840;47.508;19.376;2023-06-14T06:12:56;10.18;;;6.53;;
39094;SDS011;24840;47.508;19.376;2023-06-14T06:15:22;6.28;;;5.47;;
39094;SDS011;24840;47.508;19.376;2023-06-14T06:17:48;7.45;;;6.65;;
39094;SDS011;24840;47.508;19.376;2023-06-14T06:20:13;6.97;;;6.10;;
39094;SDS011;24840;47.508;19.376;2023-06-14T06:22:39;8.68;;;6.28;;
39094;SDS011;24840;47.508;19.376;2023-06-14T06:25:05;8.55;;;6.80;;
39094;SDS011;24840;47.508;19.376;2023-06-14T06:27:32;9.25;;;6.28;;
39094;SDS011;24840;47.508;19.376;2023-06-14T06:29:57;8.65;;;6.32;;
39094;SDS011;24840;47.508;19.376;2023-06-14T06:32:23;8.93;;;6.47;;
39094;SDS011;24840;47.508;19.376;2023-06-14T06:34:52;8.43;;;6.45;;
39094;SDS011;24840;47.508;19.376;2023-06-14T06:37:17;7.93;;;6.43;;
39094;SDS011;24840;47.508;19.376;2023-06-14T06:39:43;7.28;;;5.82;;
39094;SDS011;24840;47.508;19.376;2023-06-14T06:42:09;10.65;;;6.57;;
39094;SDS011;24840;47.508;19.376;2023-06-14T06:44:35;9.55;;;6.97;;
39094;SDS011;24840;47.508;19.376;2023-06-14T06:47:01;8.50;;;6.80;;
39094;SDS011;24840;47.508;19.376;2023-06-14T06:49:27;8.30;;;7.13;;
39094;SDS011;24840;47.508;19.376;2023-06-14T06:52:00;8.68;;;6.20;;
39094;SDS011;24840;47.508;19.376;2023-06-14T06:54:27;6.90;;;6.18;;
39094;SDS011;24840;47.508;19.376;2023-06-14T06:56:53;8.50;;;6.97;;
39094;SDS011;24840;47.508;19.376;2023-06-14T06:59:18;6.75;;;5.55;;
39094;SDS011;24840;47.508;19.376;2023-06-14T07:01:44;6.50;;;5.80;;
39094;SDS011;24840;47.508;19.376;2023-06-14T07:04:11;6.93;;;5.95;;
39094;SDS011;24840;47.508;19.376;2023-06-14T07:06:37;7.78;;;6.47;;
39094;SDS011;24840;47.508;19.376;2023-06-14T07:09:03;9.30;;;4.95;;
39094;SDS011;24840;47.508;19.376;2023-06-14T07:11:33;7.82;;;5.15;;
39094;SDS011;24840;47.508;19.376;2023-06-14T07:13:58;8.05;;;6.25;;
39094;SDS011;24840;47.508;19.376;2023-06-14T07:16:24;7.65;;;6.05;;
39094;SDS011;24840;47.508;19.376;2023-06-14T07:18:50;10.20;;;5.38;;
39094;SDS011;24840;47.508;19.376;2023-06-14T07:21:17;8.15;;;5.97;;
39094;SDS011;24840;47.508;19.376;2023-06-14T07:23:43;8.88;;;5.50;;
39094;SDS011;24840;47.508;19.376;2023-06-14T07:26:08;9.07;;;6.22;;
39094;SDS011;24840;47.508;19.376;2023-06-14T07:28:34;9.52;;;5.20;;
39094;SDS011;24840;47.508;19.376;2023-06-14T07:31:00;6.95;;;5.22;;
39094;SDS011;24840;47.508;19.376;2023-06-14T07:33:27;8.25;;;5.97;;
39094;SDS011;24840;47.508;19.376;2023-06-14T07:35:53;8.20;;;5.82;;
39094;SDS011;24840;47.508;19.376;2023-06-14T07:38:19;7.38;;;5.10;;
39094;SDS011;24840;47.508;19.376;2023-06-14T07:40:44;7.88;;;6.32;;
39094;SDS011;24840;47.508;19.376;2023-06-14T07:43:10;7.43;;;5.82;;
39094;SDS011;24840;47.508;19.376;2023-06-14T07:45:36;8.02;;;5.47;;
39094;SDS011;24840;47.508;19.376;2023-06-14T07:48:02;7.53;;;5.40;;
39094;SDS011;24840;47.508;19.376;2023-06-14T07:50:28;7.82;;;6.38;;
39094;SDS011;24840;47.508;19.376;2023-06-14T07:52:54;6.97;;;5.63;;
39094;SDS011;24840;47.508;19.376;2023-06-14T07:55:20;6.57;;;5.75;;
39094;SDS011;24840;47.508;19.376;2023-06-14T07:57:45;7.35;;;5.40;;
39094;SDS011;24840;47.508;19.376;2023-06-14T08:00:11;8.93;;;6.25;;
39094;SDS011;24840;47.508;19.376;2023-06-14T08:02:41;7.22;;;5.85;;
39094;SDS011;24840;47.508;19.376;2023-06-14T08:05:09;8.43;;;4.85;;
39094;SDS011;24840;47.508;19.376;2023-06-14T08:07:38;5.93;;;4.60;;
39094;SDS011;24840;47.508;19.376;2023-06-14T08:10:05;7.25;;;4.63;;
39094;SDS011;24840;47.508;19.376;2023-06-14T08:12:32;6.28;;;4.60;;
39094;SDS011;24840;47.508;19.376;2023-06-14T08:14:58;10.13;;;5.45;;
39094;SDS011;24840;47.508;19.376;2023-06-14T08:17:24;7.85;;;4.50;;
39094;SDS011;24840;47.508;19.376;2023-06-14T08:19:50;7.15;;;4.13;;
39094;SDS011;24840;47.508;19.376;2023-06-14T08:22:22;9.05;;;5.13;;
39094;SDS011;24840;47.508;19.376;2023-06-14T08:24:49;6.50;;;3.95;;
39094;SDS011;24840;47.508;19.376;2023-06-14T08:27:15;5.10;;;4.22;;
39094;SDS011;24840;47.508;19.376;2023-06-14T08:29:41;7.10;;;4.15;;
39094;SDS011;24840;47.508;19.376;2023-06-14T08:32:07;6.38;;;4.40;;
39094;SDS011;24840;47.508;19.376;2023-06-14T08:34:33;5.38;;;4.32;;
39094;SDS011;24840;47.508;19.376;2023-06-14T08:36:58;9.18;;;5.03;;
39094;SDS011;24840;47.508;19.376;2023-06-14T08:39:24;6.10;;;4.43;;
39094;SDS011;24840;47.508;19.376;2023-06-14T08:41:50;5.60;;;4.40;;
39094;SDS011;24840;47.508;19.376;2023-06-14T08:44:17;7.93;;;4.63;;
39094;SDS011;24840;47.508;19.376;2023-06-14T08:46:43;9.50;;;5.32;;
39094;SDS011;24840;47.508;19.376;2023-06-14T08:49:13;6.30;;;4.28;;
39094;SDS011;24840;47.508;19.376;2023-06-14T08:54:08;5.32;;;4.45;;
39094;SDS011;24840;47.508;19.376;2023-06-14T08:56:37;6.55;;;4.10;;
39094;SDS011;24840;47.508;19.376;2023-06-14T08:59:03;4.60;;;4.15;;
39094;SDS011;24840;47.508;19.376;2023-06-14T09:01:33;5.57;;;4.65;;
39094;SDS011;24840;47.508;19.376;2023-06-14T09:03:59;5.13;;;4.18;;
39094;SDS011;24840;47.508;19.376;2023-06-14T09:06:25;7.45;;;4.72;;
39094;SDS011;24840;47.508;19.376;2023-06-14T09:08:53;5.28;;;3.72;;
39094;SDS011;24840;47.508;19.376;2023-06-14T09:11:22;4.85;;;4.15;;
39094;SDS011;24840;47.508;19.376;2023-06-14T09:13:48;4.30;;;3.47;;
39094;SDS011;24840;47.508;19.376;2023-06-14T09:16:15;5.72;;;3.40;;
39094;SDS011;24840;47.508;19.376;2023-06-14T09:18:42;6.00;;;4.10;;
39094;SDS011;24840;47.508;19.376;2023-06-14T09:21:10;5.03;;;4.00;;
39094;SDS011;24840;47.508;19.376;2023-06-14T09:23:36;4.05;;;3.63;;
39094;SDS011;24840;47.508;19.376;2023-06-14T09:26:10;4.68;;;3.42;;
39094;SDS011;24840;47.508;19.376;2023-06-14T09:28:37;5.18;;;3.67;;
39094;SDS011;24840;47.508;19.376;2023-06-14T09:31:11;5.35;;;4.20;;
39094;SDS011;24840;47.508;19.376;2023-06-14T09:33:41;7.13;;;3.80;;
39094;SDS011;24840;47.508;19.376;2023-06-14T09:38:44;7.75;;;4.20;;
39094;SDS011;24840;47.508;19.376;2023-06-14T09:41:42;6.28;;;3.42;;
39094;SDS011;24840;47.508;19.376;2023-06-14T09:44:10;6.18;;;4.40;;
39094;SDS011;24840;47.508;19.376;2023-06-14T09:46:37;6.13;;;4.05;;
39094;SDS011;24840;47.508;19.376;2023-06-14T09:49:03;7.13;;;3.53;;
39094;SDS011;24840;47.508;19.376;2023-06-14T09:51:30;4.57;;;3.05;;
39094;SDS011;24840;47.508;19.376;2023-06-14T09:53:58;7.90;;;3.55;;
39094;SDS011;24840;47.508;19.376;2023-06-14T09:56:40;2.70;;;2.42;;
39094;SDS011;24840;47.508;19.376;2023-06-14T09:59:09;6.90;;;2.78;;
39094;SDS011;24840;47.508;19.376;2023-06-14T10:01:41;8.40;;;3.30;;
39094;SDS011;24840;47.508;19.376;2023-06-14T10:04:08;8.48;;;3.20;;
39094;SDS011;24840;47.508;19.376;2023-06-14T10:06:41;6.63;;;2.70;;
39094;SDS011;24840;47.508;19.376;2023-06-14T10:09:10;13.30;;;3.00;;
39094;SDS011;24840;47.508;19.376;2023-06-14T10:11:37;3.67;;;2.83;;
39094;SDS011;24840;47.508;19.376;2023-06-14T10:14:09;3.33;;;2.42;;
39094;SDS011;24840;47.508;19.376;2023-06-14T10:19:30;3.15;;;2.85;;
39094;SDS011;24840;47.508;19.376;2023-06-14T10:22:01;4.72;;;3.10;;
39094;SDS011;24840;47.508;19.376;2023-06-14T10:24:43;5.97;;;3.40;;
39094;SDS011;24840;47.508;19.376;2023-06-14T10:27:13;8.05;;;3.13;;
39094;SDS011;24840;47.508;19.376;2023-06-14T10:32:24;8.13;;;2.83;;
39094;SDS011;24840;47.508;19.376;2023-06-14T10:34:57;10.10;;;4.38;;
39094;SDS011;24840;47.508;19.376;2023-06-14T10:37:25;5.68;;;2.92;;
39094;SDS011;24840;47.508;19.376;2023-06-14T10:39:52;5.93;;;3.60;;
39094;SDS011;24840;47.508;19.376;2023-06-14T10:42:18;9.20;;;3.55;;
39094;SDS011;24840;47.508;19.376;2023-06-14T10:44:51;5.88;;;2.80;;
39094;SDS011;24840;47.508;19.376;2023-06-14T10:47:22;6.72;;;3.05;;
39094;SDS011;24840;47.508;19.376;2023-06-14T10:49:55;3.97;;;3.28;;
39094;SDS011;24840;47.508;19.376;2023-06-14T10:52:27;3.70;;;3.08;;
39094;SDS011;24840;47.508;19.376;2023-06-14T10:55:07;5.43;;;3.00;;
39094;SDS011;24840;47.508;19.376;2023-06-14T10:57:46;11.65;;;3.75;;
39094;SDS011;24840;47.508;19.376;2023-06-14T11:00:20;5.15;;;2.92;;
39094;SDS011;24840;47.508;19.376;2023-06-14T11:08:18;4.32;;;2.92;;
39094;SDS011;24840;47.508;19.376;2023-06-14T11:11:18;6.88;;;3.85;;
39094;SDS011;24840;47.508;19.376;2023-06-14T11:13:48;4.25;;;3.20;;
39094;SDS011;24840;47.508;19.376;2023-06-14T11:16:16;4.25;;;2.97;;
39094;SDS011;24840;47.508;19.376;2023-06-14T11:18:45;7.80;;;3.45;;
39094;SDS011;24840;47.508;19.376;2023-06-14T11:21:14;5.90;;;2.67;;
39094;SDS011;24840;47.508;19.376;2023-06-14T11:23:42;4.38;;;2.92;;
39094;SDS011;24840;47.508;19.376;2023-06-14T11:26:14;5.93;;;3.33;;
39094;SDS011;24840;47.508;19.376;2023-06-14T11:28:40;4.35;;;3.63;;
39094;SDS011;24840;47.508;19.376;2023-06-14T11:31:06;8.25;;;3.15;;
39094;SDS011;24840;47.508;19.376;2023-06-14T11:33:33;6.32;;;3.08;;
39094;SDS011;24840;47.508;19.376;2023-06-14T11:36:01;5.30;;;2.83;;
39094;SDS011;24840;47.508;19.376;2023-06-14T11:38:29;3.97;;;3.38;;
39094;SDS011;24840;47.508;19.376;2023-06-14T11:40:58;4.57;;;3.08;;
39094;SDS011;24840;47.508;19.376;2023-06-14T11:43:25;5.43;;;3.40;;
39094;SDS011;24840;47.508;19.376;2023-06-14T11:45:52;3.92;;;3.30;;
39094;SDS011;24840;47.508;19.376;2023-06-14T11:48:18;12.20;;;4.22;;
39094;SDS011;24840;47.508;19.376;2023-06-14T11:50:49;5.57;;;3.55;;
39094;SDS011;24840;47.508;19.376;2023-06-14T11:53:16;5.00;;;2.85;;
39094;SDS011;24840;47.508;19.376;2023-06-14T11:55:42;3.97;;;3.38;;
39094;SDS011;24840;47.508;19.376;2023-06-14T11:58:10;4.03;;;3.42;;
39094;SDS011;24840;47.508;19.376;2023-06-14T12:00:37;6.43;;;3.15;;
39094;SDS011;24840;47.508;19.376;2023-06-14T12:03:03;6.00;;;3.13;;
39094;SDS011;24840;47.508;19.376;2023-06-14T12:05:29;5.15;;;3.65;;
39094;SDS011;24840;47.508;19.376;2023-06-14T12:07:58;5.63;;;3.53;;
39094;SDS011;24840;47.508;19.376;2023-06-14T12:10:25;5.55;;;3.85;;
39094;SDS011;24840;47.508;19.376;2023-06-14T12:12:56;5.85;;;3.80;;
39094;SDS011;24840;47.508;19.376;2023-06-14T12:15:24;6.00;;;2.45;;
39094;SDS011;24840;47.508;19.376;2023-06-14T12:17:54;5.25;;;3.78;;
39094;SDS011;24840;47.508;19.376;2023-06-14T12:20:20;4.47;;;3.30;;
39094;SDS011;24840;47.508;19.376;2023-06-14T12:22:52;3.88;;;2.95;;
39094;SDS011;24840;47.508;19.376;2023-06-14T12:25:27;77.70;;;7.68;;
39094;SDS011;24840;47.508;19.376;2023-06-14T12:27:59;4.40;;;3.22;;
39094;SDS011;24840;47.508;19.376;2023-06-14T12:30:31;7.18;;;3.22;;
39094;SDS011;24840;47.508;19.376;2023-06-14T12:32:57;4.65;;;3.20;;
39094;SDS011;24840;47.508;19.376;2023-06-14T12:35:23;3.47;;;3.03;;
39094;SDS011;24840;47.508;19.376;2023-06-14T12:37:48;3.88;;;3.30;;
39094;SDS011;24840;47.508;19.376;2023-06-14T12:40:20;5.72;;;3.83;;
39094;SDS011;24840;47.508;19.376;2023-06-14T12:42:46;4.82;;;3.47;;
39094;SDS011;24840;47.508;19.376;2023-06-14T12:45:14;9.68;;;4.07;;
39094;SDS011;24840;47.508;19.376;2023-06-14T12:47:40;5.85;;;3.42;;
39094;SDS011;24840;47.508;19.376;2023-06-14T12:50:06;4.30;;;3.17;;
39094;SDS011;24840;47.508;19.376;2023-06-14T12:52:32;4.35;;;3.58;;
39094;SDS011;24840;47.508;19.376;2023-06-14T12:55:01;3.78;;;3.15;;
39094;SDS011;24840;47.508;19.376;2023-06-14T12:57:31;4.85;;;3.42;;
39094;SDS011;24840;47.508;19.376;2023-06-14T12:59:57;4.05;;;3.15;;
39094;SDS011;24840;47.508;19.376;2023-06-14T13:02:22;5.25;;;3.85;;
39094;SDS011;24840;47.508;19.376;2023-06-14T13:04:49;6.72;;;3.35;;
39094;SDS011;24840;47.508;19.376;2023-06-14T13:07:15;5.13;;;3.35;;
39094;SDS011;24840;47.508;19.376;2023-06-14T13:09:42;5.05;;;4.00;;
39094;SDS011;24840;47.508;19.376;2023-06-14T13:12:09;5.53;;;3.38;;
39094;SDS011;24840;47.508;19.376;2023-06-14T13:14:36;5.93;;;3.15;;
39094;SDS011;24840;47.508;19.376;2023-06-14T13:17:02;5.22;;;3.20;;
39094;SDS011;24840;47.508;19.376;2023-06-14T13:19:28;3.97;;;3.00;;
39094;SDS011;24840;47.508;19.376;2023-06-14T13:21:54;4.43;;;3.47;;
39094;SDS011;24840;47.508;19.376;2023-06-14T13:24:20;3.70;;;3.33;;
39094;SDS011;24840;47.508;19.376;2023-06-14T13:26:55;4.88;;;3.85;;
39094;SDS011;24840;47.508;19.376;2023-06-14T13:29:22;4.38;;;3.65;;
39094;SDS011;24840;47.508;19.376;2023-06-14T13:31:51;5.60;;;3.90;;
39094;SDS011;24840;47.508;19.376;2023-06-14T13:34:18;7.10;;;3.97;;
39094;SDS011;24840;47.508;19.376;2023-06-14T13:36:43;4.35;;;3.17;;
39094;SDS011;24840;47.508;19.376;2023-06-14T13:39:12;5.10;;;4.00;;
39094;SDS011;24840;47.508;19.376;2023-06-14T13:41:38;4.68;;;3.20;;
39094;SDS011;24840;47.508;19.376;2023-06-14T13:44:04;5.13;;;3.65;;
39094;SDS011;24840;47.508;19.376;2023-06-14T13:46:30;9.35;;;3.78;;
39094;SDS011;24840;47.508;19.376;2023-06-14T13:48:56;6.15;;;3.85;;
39094;SDS011;24840;47.508;19.376;2023-06-14T13:51:23;7.60;;;3.40;;
39094;SDS011;24840;47.508;19.376;2023-06-14T13:53:49;6.65;;;3.15;;
39094;SDS011;24840;47.508;19.376;2023-06-14T13:56:15;6.40;;;3.90;;
39094;SDS011;24840;47.508;19.376;2023-06-14T13:58:42;5.45;;;3.58;;
39094;SDS011;24840;47.508;19.376;2023-06-14T14:01:08;6.38;;;3.85;;
39094;SDS011;24840;47.508;19.376;2023-06-14T14:03:34;9.68;;;4.30;;
39094;SDS011;24840;47.508;19.376;2023-06-14T14:06:03;4.03;;;3.35;;
39094;SDS011;24840;47.508;19.376;2023-06-14T14:08:29;8.98;;;4.15;;
39094;SDS011;24840;47.508;19.376;2023-06-14T14:10:55;7.68;;;4.03;;
39094;SDS011;24840;47.508;19.376;2023-06-14T14:13:21;3.78;;;3.38;;
39094;SDS011;24840;47.508;19.376;2023-06-14T14:15:47;4.40;;;3.67;;
39094;SDS011;24840;47.508;19.376;2023-06-14T14:18:14;3.95;;;3.38;;
39094;SDS011;24840;47.508;19.376;2023-06-14T14:20:40;5.40;;;3.80;;
39094;SDS011;24840;47.508;19.376;2023-06-14T14:23:06;5.65;;;3.40;;
39094;SDS011;24840;47.508;19.376;2023-06-14T14:25:32;5.95;;;3.83;;
39094;SDS011;24840;47.508;19.376;2023-06-14T14:27:57;7.00;;;3.75;;
39094;SDS011;24840;47.508;19.376;2023-06-14T14:30:23;5.65;;;3.40;;
39094;SDS011;24840;47.508;19.376;2023-06-14T14:32:49;6.35;;;3.80;;
39094;SDS011;24840;47.508;19.376;2023-06-14T14:35:16;5.97;;;3.50;;
39094;SDS011;24840;47.508;19.376;2023-06-14T14:37:43;5.90;;;3.15;;
39094;SDS011;24840;47.508;19.376;2023-06-14T14:40:09;4.50;;;3.30;;
39094;SDS011;24840;47.508;19.376;2023-06-14T14:42:36;4.85;;;3.20;;
39094;SDS011;24840;47.508;19.376;2023-06-14T14:45:02;4.28;;;3.70;;
39094;SDS011;24840;47.508;19.376;2023-06-14T14:47:28;5.38;;;3.22;;
39094;SDS011;24840;47.508;19.376;2023-06-14T14:49:54;9.95;;;3.90;;